Coltishall, United Kingdom
Current Conditions -  °F | °C
As of 6:50 PM on Wednesday 26 Nov 2014 (Local Time) from EGSH Reporting Station
Moderate Rain Moderate Rain  
Wind Chill: 48°   Ceiling: 300
Heat Index: 48°   Visibility: 1.3mi
Dew Point: 48°   Wind: 3mph
Humidity: 100%   Direction: 90°E
Pressure: 29.8"   Gusts: NA
Location:  52.73°N, 1.37°E
Report Text: EGSH 261850Z 09003KT 2100 RADZ BR BKN003 09/09 Q1009
Loading
Personal Weather Stations






























Interactive Weather Map New forecast layout! Learn more

10-Day Weather Forecast

Advertisements
Track Severe Weather on mobile